Time;durP1;ratioP1;P1;durP2;ratioP2;P2;SDS_P1;SDS_P2;PMS_P1;PMS_P2;Temp;Humidity;BMP_temperature;BMP_pressure;BME280_temperature;BME280_humidity;BME280_pressure;Samples;Min_cycle;Max_cycle;Signal;HPM_P1;HPM_P2
2021/04/07 00:01:05;;;;;;;18.53;12.17;;;;;;;;;;5073235;28;20421;-61
2021/04/07 00:03:31;;;;;;;20.43;11.73;;;;;;;;;;5071760;28;20404;-60
2021/04/07 00:05:57;;;;;;;21.77;12.30;;;;;;;;;;5071356;28;20508;-61
2021/04/07 00:08:26;;;;;;;22.37;12.73;;;;;;;;;;5071615;28;20484;-60
2021/04/07 00:10:53;;;;;;;21.23;12.20;;;;;;;;;;5069839;28;20456;-62
2021/04/07 00:13:20;;;;;;;30.00;14.68;;;;;;;;;;5070861;28;20265;-61
2021/04/07 00:15:46;;;;;;;27.60;13.68;;;;;;;;;;5071091;28;20709;-61
2021/04/07 00:18:13;;;;;;;26.45;12.57;;;;;;;;;;5071471;28;20182;-62
2021/04/07 00:20:39;;;;;;;30.25;15.98;;;;;;;;;;5071396;28;20235;-62
2021/04/07 00:23:05;;;;;;;24.42;15.68;;;;;;;;;;5053481;28;20228;-61
2021/04/07 00:25:31;;;;;;;31.02;14.55;;;;;;;;;;5070999;28;20217;-62
2021/04/07 00:27:59;;;;;;;23.80;15.25;;;;;;;;;;5070969;28;20181;-60
2021/04/07 00:30:30;;;;;;;20.33;12.73;;;;;;;;;;5069801;28;20158;-60
2021/04/07 00:32:56;;;;;;;22.85;10.48;;;;;;;;;;5070409;28;20169;-59
2021/04/07 00:35:22;;;;;;;19.33;11.93;;;;;;;;;;5070856;28;20179;-61
2021/04/07 00:37:49;;;;;;;18.58;11.48;;;;;;;;;;5071384;28;20652;-62
2021/04/07 00:40:15;;;;;;;20.90;13.38;;;;;;;;;;5071024;28;20228;-61
2021/04/07 00:42:42;;;;;;;20.80;11.75;;;;;;;;;;5071644;28;20181;-61
2021/04/07 00:45:09;;;;;;;23.48;13.45;;;;;;;;;;5071007;28;20225;-61
2021/04/07 00:47:35;;;;;;;24.75;13.82;;;;;;;;;;5071250;28;20173;-61
2021/04/07 00:50:02;;;;;;;33.83;15.18;;;;;;;;;;5071091;28;20165;-61
2021/04/07 00:52:28;;;;;;;28.92;15.30;;;;;;;;;;5071031;28;20257;-59
2021/04/07 00:54:55;;;;;;;30.17;15.13;;;;;;;;;;5070770;28;20609;-60
2021/04/07 00:57:21;;;;;;;21.63;12.50;;;;;;;;;;5070778;28;20443;-59
2021/04/07 00:59:47;;;;;;;26.25;14.02;;;;;;;;;;5070903;28;20167;-62
2021/04/07 01:02:16;;;;;;;20.43;12.63;;;;;;;;;;5070245;28;20193;-61
2021/04/07 01:04:43;;;;;;;23.35;14.13;;;;;;;;;;5070033;28;20444;-61
2021/04/07 01:07:11;;;;;;;22.10;12.55;;;;;;;;;;5070598;28;20162;-61
2021/04/07 01:09:39;;;;;;;22.13;13.35;;;;;;;;;;5052627;28;20260;-60
2021/04/07 01:12:06;;;;;;;24.77;12.38;;;;;;;;;;5070556;28;20678;-61
2021/04/07 01:14:33;;;;;;;17.35;11.70;;;;;;;;;;5070577;28;20173;-62
2021/04/07 01:16:59;;;;;;;24.73;12.40;;;;;;;;;;5070523;28;20638;-59
2021/04/07 01:19:25;;;;;;;21.88;12.70;;;;;;;;;;5070699;28;20185;-60
2021/04/07 01:21:52;;;;;;;21.25;11.68;;;;;;;;;;5070532;28;20190;-60
2021/04/07 01:24:18;;;;;;;20.90;11.25;;;;;;;;;;5070473;28;20200;-61
2021/04/07 01:26:44;;;;;;;16.63;10.45;;;;;;;;;;5070301;28;20244;-62
2021/04/07 01:29:10;;;;;;;17.33;11.33;;;;;;;;;;5070621;28;20248;-62
2021/04/07 01:31:43;;;;;;;16.92;11.32;;;;;;;;;;5070404;28;20470;-62
2021/04/07 01:34:09;;;;;;;19.50;11.27;;;;;;;;;;5070594;28;20224;-61
2021/04/07 01:36:35;;;;;;;19.63;12.17;;;;;;;;;;5070110;28;20178;-62
2021/04/07 01:39:01;;;;;;;25.20;13.87;;;;;;;;;;5070567;28;20404;-60
2021/04/07 01:41:27;;;;;;;19.70;12.10;;;;;;;;;;5070267;28;20431;-62
2021/04/07 01:43:53;;;;;;;21.53;13.20;;;;;;;;;;5070495;28;20432;-61
2021/04/07 01:46:20;;;;;;;26.45;13.88;;;;;;;;;;5069995;28;20463;-60
2021/04/07 01:48:46;;;;;;;21.42;13.13;;;;;;;;;;5070391;28;20174;-63
2021/04/07 01:51:12;;;;;;;33.22;14.60;;;;;;;;;;5071186;28;20269;-61
2021/04/07 01:53:37;;;;;;;23.73;12.77;;;;;;;;;;5074306;28;20253;-60
2021/04/07 01:56:04;;;;;;;26.43;15.97;;;;;;;;;;5073911;28;20400;-62
2021/04/07 01:58:30;;;;;;;25.63;14.30;;;;;;;;;;5074148;28;20466;-60
2021/04/07 02:00:56;;;;;;;26.53;14.50;;;;;;;;;;5073923;28;20240;-60
2021/04/07 02:03:22;;;;;;;25.73;15.07;;;;;;;;;;5074089;28;20400;-59
2021/04/07 02:05:48;;;;;;;29.03;16.23;;;;;;;;;;5073628;28;20451;-62
2021/04/07 02:08:13;;;;;;;24.13;15.60;;;;;;;;;;5073952;28;20424;-63
2021/04/07 02:10:39;;;;;;;27.07;15.23;;;;;;;;;;5073697;28;20926;-62
2021/04/07 02:13:06;;;;;;;31.00;15.85;;;;;;;;;;5073762;28;20743;-62
2021/04/07 02:15:32;;;;;;;29.83;15.80;;;;;;;;;;5073638;28;20170;-60
2021/04/07 02:17:58;;;;;;;25.47;14.20;;;;;;;;;;5073716;28;20204;-61
2021/04/07 02:20:24;;;;;;;24.30;13.38;;;;;;;;;;5073617;28;20404;-61
2021/04/07 02:22:51;;;;;;;22.05;14.10;;;;;;;;;;5073723;28;20193;-61
2021/04/07 02:25:17;;;;;;;28.73;14.95;;;;;;;;;;5073243;28;20189;-62
2021/04/07 02:27:43;;;;;;;30.50;15.55;;;;;;;;;;5073567;28;20170;-61
2021/04/07 02:30:14;;;;;;;28.95;14.75;;;;;;;;;;5073637;28;20170;-61
2021/04/07 02:32:41;;;;;;;28.45;12.90;;;;;;;;;;5073491;28;20193;-60
2021/04/07 02:35:07;;;;;;;17.95;11.23;;;;;;;;;;5073130;28;20190;-61
2021/04/07 02:37:33;;;;;;;21.15;11.85;;;;;;;;;;5073370;28;20193;-62
2021/04/07 02:39:59;;;;;;;24.35;12.30;;;;;;;;;;5073386;28;20165;-61
2021/04/07 02:42:26;;;;;;;18.87;11.30;;;;;;;;;;5055208;28;20202;-61
2021/04/07 02:44:52;;;;;;;20.88;11.15;;;;;;;;;;5073293;28;20444;-62
2021/04/07 02:47:18;;;;;;;22.00;10.70;;;;;;;;;;5055032;28;20180;-61
2021/04/07 02:49:45;;;;;;;21.55;12.30;;;;;;;;;;5073236;28;20397;-62
2021/04/07 02:52:11;;;;;;;25.30;12.23;;;;;;;;;;5073228;28;20198;-60
2021/04/07 02:54:37;;;;;;;22.23;12.13;;;;;;;;;;5073148;28;20695;-60
2021/04/07 02:57:06;;;;;;;22.10;11.90;;;;;;;;;;5072841;28;20181;-60
2021/04/07 02:59:32;;;;;;;27.35;13.30;;;;;;;;;;5073031;28;20400;-61
2021/04/07 03:01:58;;;;;;;16.77;11.55;;;;;;;;;;5072861;28;20201;-61
2021/04/07 03:04:24;;;;;;;22.00;12.80;;;;;;;;;;5072947;28;20193;-60
2021/04/07 03:06:50;;;;;;;23.17;12.70;;;;;;;;;;5072851;28;20296;-61
2021/04/07 03:09:16;;;;;;;19.47;11.97;;;;;;;;;;5072847;28;20431;-61
2021/04/07 03:11:42;;;;;;;21.97;11.67;;;;;;;;;;5072801;28;20638;-61
2021/04/07 03:14:08;;;;;;;23.23;12.23;;;;;;;;;;5072901;28;20396;-60
2021/04/07 03:16:34;;;;;;;22.13;12.75;;;;;;;;;;5072528;28;20397;-61
2021/04/07 03:19:00;;;;;;;19.98;11.18;;;;;;;;;;5072675;28;20158;-60
2021/04/07 03:21:26;;;;;;;24.80;12.05;;;;;;;;;;5072623;28;20186;-60
2021/04/07 03:23:52;;;;;;;28.98;14.35;;;;;;;;;;5072432;28;20701;-61
2021/04/07 03:26:19;;;;;;;27.10;14.05;;;;;;;;;;5072376;28;20205;-61
2021/04/07 03:28:45;;;;;;;29.42;15.32;;;;;;;;;;5072512;28;20174;-60
2021/04/07 03:31:11;;;;;;;29.67;17.95;;;;;;;;;;5072331;28;20262;-61
2021/04/07 03:33:37;;;;;;;32.58;18.00;;;;;;;;;;5072330;28;20621;-62
2021/04/07 03:36:05;;;;;;;38.20;20.27;;;;;;;;;;5072062;28;20203;-61
2021/04/07 03:38:31;;;;;;;25.52;17.65;;;;;;;;;;5072282;28;20404;-60
2021/04/07 03:40:58;;;;;;;34.33;18.38;;;;;;;;;;5072220;28;20186;-61
2021/04/07 03:43:26;;;;;;;40.63;18.98;;;;;;;;;;5072113;28;20170;-60
2021/04/07 03:45:55;;;;;;;31.73;18.90;;;;;;;;;;5071778;28;20669;-61
2021/04/07 03:48:23;;;;;;;32.85;18.65;;;;;;;;;;5072027;28;20559;-61
2021/04/07 03:50:50;;;;;;;39.88;20.95;;;;;;;;;;5071990;28;20182;-61
2021/04/07 03:53:16;;;;;;;34.53;20.83;;;;;;;;;;5072028;28;20212;-61
2021/04/07 03:55:43;;;;;;;36.15;20.38;;;;;;;;;;5071614;28;20219;-60
2021/04/07 03:58:09;;;;;;;30.42;18.65;;;;;;;;;;5071913;28;20166;-61
2021/04/07 04:00:35;;;;;;;32.03;20.97;;;;;;;;;;5071648;28;20192;-60
2021/04/07 04:03:01;;;;;;;37.17;21.63;;;;;;;;;;5071790;28;20462;-60
2021/04/07 04:05:26;;;;;;;37.37;19.20;;;;;;;;;;5071340;28;20240;-60
2021/04/07 04:07:52;;;;;;;33.60;18.27;;;;;;;;;;5071646;28;20472;-61
2021/04/07 04:10:19;;;;;;;33.10;20.90;;;;;;;;;;5071495;28;20752;-61
2021/04/07 04:12:45;;;;;;;41.72;21.05;;;;;;;;;;5071466;28;20930;-60
2021/04/07 04:15:12;;;;;;;32.13;18.30;;;;;;;;;;5070763;28;20199;-61
2021/04/07 04:17:38;;;;;;;26.73;17.88;;;;;;;;;;5071550;28;20400;-61
2021/04/07 04:20:05;;;;;;;31.92;19.00;;;;;;;;;;5071410;28;20166;-60
2021/04/07 04:22:32;;;;;;;32.30;18.05;;;;;;;;;;5071379;28;20193;-60
2021/04/07 04:24:58;;;;;;;36.83;17.98;;;;;;;;;;5071052;28;20197;-58
2021/04/07 04:27:23;;;;;;;30.80;17.67;;;;;;;;;;5071153;28;20166;-62
2021/04/07 04:29:50;;;;;;;32.83;18.38;;;;;;;;;;5071291;28;20475;-61
2021/04/07 04:32:16;;;;;;;27.15;17.17;;;;;;;;;;5071148;28;20658;-61
2021/04/07 04:34:41;;;;;;;28.07;18.40;;;;;;;;;;5071119;28;20171;-61
2021/04/07 04:37:07;;;;;;;38.93;17.07;;;;;;;;;;5070865;28;20392;-60
2021/04/07 04:39:34;;;;;;;30.90;17.10;;;;;;;;;;5071080;28;20432;-60
2021/04/07 04:42:00;;;;;;;36.40;19.70;;;;;;;;;;5071010;28;20438;-60
2021/04/07 04:44:26;;;;;;;29.88;18.63;;;;;;;;;;5071281;28;20173;-60
2021/04/07 04:46:52;;;;;;;36.65;20.30;;;;;;;;;;5071140;28;20249;-59
2021/04/07 04:49:18;;;;;;;31.57;19.83;;;;;;;;;;5071307;28;20249;-59
2021/04/07 04:51:44;;;;;;;28.90;19.47;;;;;;;;;;5070929;28;20421;-60
2021/04/07 04:54:10;;;;;;;32.85;18.13;;;;;;;;;;5071040;28;20496;-60
2021/04/07 04:56:39;;;;;;;35.83;19.60;;;;;;;;;;5070588;28;20190;-61
2021/04/07 04:59:06;;;;;;;36.70;19.08;;;;;;;;;;5070894;28;20405;-61
2021/04/07 05:01:32;;;;;;;32.97;18.10;;;;;;;;;;5070982;28;20189;-61
2021/04/07 05:03:58;;;;;;;34.17;18.20;;;;;;;;;;5070898;28;20701;-61
2021/04/07 05:06:24;;;;;;;30.83;19.05;;;;;;;;;;5070364;28;20483;-60
2021/04/07 05:08:50;;;;;;;29.43;16.37;;;;;;;;;;5070847;28;20205;-62
2021/04/07 05:11:16;;;;;;;32.00;18.48;;;;;;;;;;5070413;28;20447;-61
2021/04/07 05:13:42;;;;;;;36.50;16.80;;;;;;;;;;5070796;28;20167;-61
2021/04/07 05:16:08;;;;;;;29.43;16.30;;;;;;;;;;5070405;28;20393;-62
2021/04/07 05:18:34;;;;;;;38.07;16.17;;;;;;;;;;5070763;28;20404;-62
2021/04/07 05:21:00;;;;;;;31.17;16.17;;;;;;;;;;5070510;28;20423;-62
2021/04/07 05:25:54;;;;;;;39.47;18.35;;;;;;;;;;5026473;28;20294;-48
2021/04/07 05:28:20;;;;;;;25.93;16.40;;;;;;;;;;5034885;28;20194;-48
2021/04/07 05:31:00;;;;;;;26.57;14.90;;;;;;;;;;5034786;28;20452;-49
2021/04/07 05:33:27;;;;;;;32.70;15.50;;;;;;;;;;5034753;28;20410;-49
2021/04/07 05:35:55;;;;;;;32.05;17.55;;;;;;;;;;5034323;28;20175;-50
2021/04/07 05:38:22;;;;;;;33.15;18.67;;;;;;;;;;5034558;28;20175;-49
2021/04/07 05:40:49;;;;;;;29.15;15.20;;;;;;;;;;5034824;28;20183;-49
2021/04/07 05:43:16;;;;;;;27.60;15.45;;;;;;;;;;5034512;28;20168;-48
2021/04/07 05:45:42;;;;;;;27.35;15.32;;;;;;;;;;5034083;28;20207;-49
2021/04/07 05:48:10;;;;;;;23.00;13.67;;;;;;;;;;5034342;28;20172;-50
2021/04/07 05:50:37;;;;;;;21.38;12.43;;;;;;;;;;5034269;28;20406;-48
2021/04/07 05:53:03;;;;;;;21.55;11.50;;;;;;;;;;5034448;28;20211;-50
2021/04/07 05:55:29;;;;;;;18.38;10.88;;;;;;;;;;5034020;28;20195;-50
2021/04/07 05:57:56;;;;;;;17.50;10.75;;;;;;;;;;5034323;28;20228;-49
2021/04/07 06:00:22;;;;;;;15.30;9.20;;;;;;;;;;5034269;28;20174;-49
2021/04/07 06:02:48;;;;;;;14.27;9.55;;;;;;;;;;5034075;28;20748;-49
2021/04/07 06:05:15;;;;;;;15.10;8.75;;;;;;;;;;5033736;28;20196;-48
2021/04/07 06:07:41;;;;;;;14.05;9.02;;;;;;;;;;5034045;28;20202;-48
2021/04/07 06:10:07;;;;;;;10.67;7.53;;;;;;;;;;5034106;28;20203;-48
2021/04/07 06:12:33;;;;;;;12.05;9.38;;;;;;;;;;5033860;28;20398;-48
2021/04/07 06:14:59;;;;;;;17.30;9.13;;;;;;;;;;5033741;28;20571;-49
2021/04/07 06:17:25;;;;;;;14.73;9.30;;;;;;;;;;5033772;28;20497;-48
2021/04/07 06:19:51;;;;;;;14.13;9.13;;;;;;;;;;5033880;28;20421;-48
2021/04/07 06:22:17;;;;;;;15.20;9.70;;;;;;;;;;5033990;28;20623;-48
2021/04/07 06:24:43;;;;;;;18.55;10.80;;;;;;;;;;5033681;28;20536;-48
2021/04/07 06:27:09;;;;;;;18.50;10.83;;;;;;;;;;5033994;28;20175;-48
2021/04/07 06:29:35;;;;;;;17.20;10.63;;;;;;;;;;5033972;28;20422;-49
2021/04/07 06:32:01;;;;;;;21.63;11.23;;;;;;;;;;5033965;28;20391;-48
2021/04/07 06:34:27;;;;;;;16.93;11.30;;;;;;;;;;5033350;28;20921;-48
2021/04/07 06:36:54;;;;;;;21.13;13.13;;;;;;;;;;5032962;28;20949;-48
2021/04/07 06:39:20;;;;;;;16.85;11.20;;;;;;;;;;5033396;28;20399;-48
2021/04/07 06:41:46;;;;;;;18.53;10.53;;;;;;;;;;5033700;28;20182;-47
2021/04/07 06:44:12;;;;;;;19.03;10.20;;;;;;;;;;5033322;28;20418;-48
2021/04/07 06:46:39;;;;;;;17.00;11.15;;;;;;;;;;5033285;28;20463;-48
2021/04/07 06:49:05;;;;;;;12.82;9.13;;;;;;;;;;5033234;28;20164;-50
2021/04/07 06:51:32;;;;;;;14.25;8.75;;;;;;;;;;5033348;28;20167;-48
2021/04/07 06:53:59;;;;;;;13.43;9.05;;;;;;;;;;5033075;28;20233;-48
2021/04/07 06:56:25;;;;;;;14.88;8.05;;;;;;;;;;5033131;28;20180;-50
2021/04/07 06:58:52;;;;;;;12.95;8.27;;;;;;;;;;5033105;28;20175;-48
2021/04/07 07:01:18;;;;;;;13.90;8.32;;;;;;;;;;5033170;28;20596;-48
2021/04/07 07:03:44;;;;;;;11.53;7.60;;;;;;;;;;5032767;28;20275;-48
2021/04/07 07:06:11;;;;;;;12.13;8.57;;;;;;;;;;5032371;28;20511;-49
2021/04/07 07:08:37;;;;;;;12.10;7.93;;;;;;;;;;5032540;28;20407;-48
2021/04/07 07:11:10;;;;;;;10.60;7.65;;;;;;;;;;5032358;28;20163;-48
2021/04/07 07:13:36;;;;;;;14.00;7.63;;;;;;;;;;5032323;28;20229;-48
2021/04/07 07:16:02;;;;;;;11.70;7.30;;;;;;;;;;5031734;28;20179;-48
2021/04/07 07:18:28;;;;;;;13.90;7.93;;;;;;;;;;5032318;28;20690;-48
2021/04/07 07:20:55;;;;;;;11.18;8.73;;;;;;;;;;5032011;28;20402;-50
2021/04/07 07:23:25;;;;;;;11.20;7.68;;;;;;;;;;5032321;28;20164;-48
2021/04/07 07:25:57;;;;;;;13.73;7.82;;;;;;;;;;5031476;28;20669;-48
2021/04/07 07:28:25;;;;;;;11.73;8.18;;;;;;;;;;5032107;28;20194;-48
2021/04/07 07:30:51;;;;;;;16.10;9.25;;;;;;;;;;5031711;28;20168;-48
2021/04/07 07:33:22;;;;;;;14.77;8.93;;;;;;;;;;5032451;28;20174;-48
2021/04/07 07:35:49;;;;;;;16.75;10.40;;;;;;;;;;5032460;28;20415;-49
2021/04/07 07:38:22;;;;;;;16.08;9.95;;;;;;;;;;5032491;28;20172;-49
2021/04/07 07:40:48;;;;;;;24.20;11.13;;;;;;;;;;5032247;28;20178;-48
2021/04/07 07:43:14;;;;;;;15.52;10.35;;;;;;;;;;5031913;28;20768;-49
2021/04/07 07:45:42;;;;;;;12.30;8.40;;;;;;;;;;5030969;28;20203;-48
2021/04/07 07:48:22;;;;;;;10.88;8.65;;;;;;;;;;5031332;28;20185;-49
2021/04/07 07:50:51;;;;;;;12.05;8.18;;;;;;;;;;5031248;28;20175;-48
2021/04/07 07:53:17;;;;;;;8.73;7.82;;;;;;;;;;5031720;28;20186;-48
2021/04/07 07:55:44;;;;;;;10.47;8.67;;;;;;;;;;5031696;28;20183;-49
2021/04/07 07:58:12;;;;;;;8.90;7.25;;;;;;;;;;5032237;28;20422;-50
2021/04/07 08:00:38;;;;;;;11.95;8.55;;;;;;;;;;5031940;28;20163;-48
2021/04/07 08:03:08;;;;;;;8.63;7.78;;;;;;;;;;5031772;28;20650;-50
2021/04/07 08:05:37;;;;;;;11.32;9.25;;;;;;;;;;5031528;28;20206;-48
2021/04/07 08:08:04;;;;;;;9.98;7.63;;;;;;;;;;5031767;28;20592;-48
2021/04/07 08:10:31;;;;;;;9.30;8.10;;;;;;;;;;5031766;28;20172;-48
2021/04/07 08:12:57;;;;;;;11.73;9.20;;;;;;;;;;5031606;28;20518;-49
2021/04/07 08:15:24;;;;;;;11.63;8.77;;;;;;;;;;5031415;28;20647;-49
2021/04/07 08:17:50;;;;;;;16.55;10.25;;;;;;;;;;5031532;28;20175;-48
2021/04/07 08:20:17;;;;;;;18.65;11.98;;;;;;;;;;5031773;28;20175;-48
2021/04/07 08:22:43;;;;;;;16.50;10.85;;;;;;;;;;5031409;28;20178;-48
2021/04/07 08:25:14;;;;;;;14.15;10.95;;;;;;;;;;5031141;28;20693;-48
2021/04/07 08:27:40;;;;;;;15.35;11.73;;;;;;;;;;5031804;28;20207;-49
2021/04/07 08:30:06;;;;;;;18.35;11.48;;;;;;;;;;5031854;28;20168;-48
2021/04/07 08:32:34;;;;;;;15.98;13.05;;;;;;;;;;5031512;28;20183;-48
2021/04/07 08:35:06;;;;;;;20.65;13.35;;;;;;;;;;5031237;28;20195;-49
2021/04/07 08:37:33;;;;;;;14.70;11.60;;;;;;;;;;5031230;28;20167;-48
2021/04/07 08:40:29;;;;;;;16.77;11.70;;;;;;;;;;5031566;28;20226;-50
2021/04/07 08:42:55;;;;;;;16.67;11.77;;;;;;;;;;5009723;28;20670;-47
2021/04/07 08:45:21;;;;;;;15.05;11.10;;;;;;;;;;5030828;28;20199;-48
2021/04/07 08:47:54;;;;;;;12.57;10.00;;;;;;;;;;5031063;28;20174;-48
2021/04/07 08:50:20;;;;;;;15.18;10.73;;;;;;;;;;5031282;28;20489;-50
2021/04/07 08:52:49;;;;;;;10.93;9.37;;;;;;;;;;5031045;28;20259;-50
2021/04/07 08:55:28;;;;;;;14.15;10.20;;;;;;;;;;5030769;28;20422;-48
2021/04/07 08:58:01;;;;;;;12.57;9.60;;;;;;;;;;5031001;28;20225;-49
2021/04/07 09:00:35;;;;;;;12.23;9.93;;;;;;;;;;5030830;28;20176;-48
2021/04/07 09:03:11;;;;;;;13.20;10.30;;;;;;;;;;5031029;28;20181;-48
2021/04/07 09:05:46;;;;;;;16.45;11.65;;;;;;;;;;5030666;28;20592;-48
2021/04/07 09:08:21;;;;;;;18.50;13.68;;;;;;;;;;5030841;28;20564;-49
2021/04/07 09:10:47;;;;;;;19.30;13.75;;;;;;;;;;5030901;28;20159;-49
2021/04/07 09:13:24;;;;;;;16.80;11.87;;;;;;;;;;5030870;28;20694;-48
2021/04/07 09:15:55;;;;;;;19.65;13.80;;;;;;;;;;5030525;28;20398;-48
2021/04/07 09:18:38;;;;;;;17.50;11.60;;;;;;;;;;5030825;28;20179;-49
2021/04/07 09:21:05;;;;;;;17.45;12.15;;;;;;;;;;5030744;28;20262;-48
2021/04/07 09:23:35;;;;;;;17.88;12.20;;;;;;;;;;5030760;28;20532;-49
2021/04/07 09:26:09;;;;;;;19.08;12.80;;;;;;;;;;5030364;28;20211;-48
2021/04/07 09:28:45;;;;;;;19.65;12.68;;;;;;;;;;5030691;28;20693;-50
2021/04/07 09:31:19;;;;;;;18.08;12.75;;;;;;;;;;5030498;28;20673;-49
2021/04/07 09:33:49;;;;;;;17.33;12.73;;;;;;;;;;5029195;28;20223;-49
2021/04/07 09:36:15;;;;;;;20.75;14.32;;;;;;;;;;5030201;28;20185;-49
2021/04/07 09:38:50;;;;;;;21.50;13.68;;;;;;;;;;5030586;28;20170;-49
2021/04/07 09:41:23;;;;;;;13.63;11.52;;;;;;;;;;5030421;28;20585;-49
2021/04/07 09:43:50;;;;;;;14.43;12.30;;;;;;;;;;5030370;28;20228;-49
2021/04/07 09:46:16;;;;;;;18.45;12.98;;;;;;;;;;5029972;28;20702;-50
2021/04/07 09:48:43;;;;;;;21.20;13.90;;;;;;;;;;5030419;28;20172;-48
2021/04/07 09:51:20;;;;;;;21.70;14.57;;;;;;;;;;5030287;28;20174;-48
2021/04/07 09:53:46;;;;;;;19.80;14.77;;;;;;;;;;5030368;28;20190;-48
2021/04/07 09:56:12;;;;;;;17.20;13.55;;;;;;;;;;5030018;28;20167;-48
2021/04/07 09:58:45;;;;;;;24.10;15.83;;;;;;;;;;5030236;28;20178;-48
2021/04/07 10:01:13;;;;;;;24.00;15.75;;;;;;;;;;5030157;28;20932;-48
2021/04/07 10:03:46;;;;;;;23.10;15.68;;;;;;;;;;5030470;28;20554;-50
2021/04/07 10:06:19;;;;;;;20.70;13.77;;;;;;;;;;5030002;28;20196;-48
2021/04/07 10:08:45;;;;;;;24.08;14.75;;;;;;;;;;5030423;28;20172;-50
2021/04/07 10:11:11;;;;;;;25.50;14.80;;;;;;;;;;5030286;28;20258;-48
2021/04/07 10:13:38;;;;;;;27.03;16.10;;;;;;;;;;5033226;28;20403;-48
2021/04/07 10:16:13;;;;;;;28.77;16.98;;;;;;;;;;5034159;28;20409;-50
2021/04/07 10:18:40;;;;;;;23.33;15.10;;;;;;;;;;5032812;28;20176;-48
2021/04/07 10:21:21;;;;;;;22.02;14.52;;;;;;;;;;5035760;28;20576;-50
2021/04/07 10:23:48;;;;;;;22.65;13.75;;;;;;;;;;5033714;28;20209;-48
2021/04/07 10:26:15;;;;;;;22.77;15.15;;;;;;;;;;5033545;28;20197;-48
2021/04/07 10:28:54;;;;;;;25.40;14.82;;;;;;;;;;5033642;28;20173;-48
2021/04/07 10:31:21;;;;;;;21.10;14.88;;;;;;;;;;5050008;28;20547;-49
2021/04/07 10:33:47;;;;;;;19.47;13.80;;;;;;;;;;5037792;28;20197;-49
2021/04/07 10:36:13;;;;;;;21.13;13.20;;;;;;;;;;5035556;28;20899;-48
2021/04/07 10:38:40;;;;;;;15.70;11.27;;;;;;;;;;5032178;28;20175;-49
2021/04/07 10:41:06;;;;;;;16.98;11.48;;;;;;;;;;5033413;28;20787;-49
2021/04/07 10:43:34;;;;;;;22.08;11.00;;;;;;;;;;5033276;28;20256;-49
2021/04/07 10:46:04;;;;;;;16.67;12.25;;;;;;;;;;5033172;28;20231;-50
2021/04/07 10:48:30;;;;;;;18.15;12.20;;;;;;;;;;5033236;28;20179;-49
2021/04/07 10:50:57;;;;;;;15.88;10.20;;;;;;;;;;5032699;28;20601;-49
2021/04/07 10:53:30;;;;;;;17.98;11.00;;;;;;;;;;5033260;28;20213;-49
2021/04/07 10:55:57;;;;;;;16.67;11.70;;;;;;;;;;5032964;28;20274;-50
2021/04/07 10:58:27;;;;;;;16.77;11.63;;;;;;;;;;5033058;28;20741;-48
2021/04/07 11:00:53;;;;;;;17.55;12.00;;;;;;;;;;5032533;28;20176;-49
2021/04/07 11:03:31;;;;;;;21.77;12.48;;;;;;;;;;5031970;28;20217;-48
2021/04/07 11:05:57;;;;;;;17.55;12.40;;;;;;;;;;5026069;28;20205;-48
2021/04/07 11:08:33;;;;;;;16.55;11.63;;;;;;;;;;5025660;28;20582;-47
2021/04/07 11:10:59;;;;;;;18.40;12.25;;;;;;;;;;5024702;28;20176;-48
2021/04/07 11:13:27;;;;;;;18.33;12.07;;;;;;;;;;5031712;28;20227;-51
2021/04/07 11:15:53;;;;;;;17.70;12.35;;;;;;;;;;5025287;28;20423;-51
2021/04/07 11:18:29;;;;;;;20.17;12.52;;;;;;;;;;5031587;28;20653;-50
2021/04/07 11:20:55;;;;;;;13.98;10.98;;;;;;;;;;5030229;28;20202;-51
2021/04/07 11:23:24;;;;;;;17.53;11.17;;;;;;;;;;5031668;28;20843;-52
2021/04/07 11:25:51;;;;;;;19.95;12.52;;;;;;;;;;5031429;28;20463;-49
2021/04/07 11:28:17;;;;;;;23.05;12.50;;;;;;;;;;5032139;28;20173;-49
2021/04/07 11:30:55;;;;;;;16.20;11.50;;;;;;;;;;5032752;28;20186;-54
2021/04/07 11:33:24;;;;;;;18.30;14.10;;;;;;;;;;5032334;28;20965;-48
2021/04/07 11:36:00;;;;;;;22.05;12.25;;;;;;;;;;5032203;28;20170;-48
2021/04/07 11:38:27;;;;;;;23.77;13.25;;;;;;;;;;5032265;28;20175;-49
2021/04/07 11:44:23;;;;;;;14.95;10.02;;;;;;;;;;5032424;28;20240;-50
2021/04/07 11:46:24;;;;;;;20.13;12.20;;;;;;;;;;5031725;28;20222;-51
2021/04/07 11:48:50;;;;;;;16.60;12.00;;;;;;;;;;5034766;28;20189;-49
2021/04/07 11:51:16;;;;;;;15.52;11.40;;;;;;;;;;5032131;28;20412;-49
2021/04/07 11:53:44;;;;;;;16.23;11.82;;;;;;;;;;5031460;28;20196;-50
2021/04/07 11:56:10;;;;;;;14.73;10.73;;;;;;;;;;5031768;28;20321;-52
2021/04/07 11:58:36;;;;;;;17.27;11.05;;;;;;;;;;5031664;28;20242;-52
2021/04/07 12:01:02;;;;;;;14.73;9.83;;;;;;;;;;5031831;28;20242;-49
2021/04/07 12:03:30;;;;;;;18.52;9.82;;;;;;;;;;5031708;28;20763;-49
2021/04/07 12:05:56;;;;;;;12.45;7.72;;;;;;;;;;5031390;28;20207;-51
2021/04/07 12:08:22;;;;;;;7.80;6.55;;;;;;;;;;5031831;28;20248;-52
2021/04/07 12:10:48;;;;;;;7.78;5.85;;;;;;;;;;5031544;28;20631;-48
2021/04/07 12:13:14;;;;;;;10.50;6.47;;;;;;;;;;5031583;28;20247;-49
2021/04/07 12:15:40;;;;;;;17.33;6.47;;;;;;;;;;5031199;28;20316;-49
2021/04/07 12:18:07;;;;;;;6.20;5.15;;;;;;;;;;5031519;28;21059;-49
2021/04/07 12:20:33;;;;;;;11.68;5.78;;;;;;;;;;5031464;28;20173;-48
2021/04/07 12:23:00;;;;;;;11.35;5.93;;;;;;;;;;5031554;28;20181;-48
2021/04/07 12:25:26;;;;;;;10.05;6.35;;;;;;;;;;5030994;28;20242;-50
2021/04/07 12:27:52;;;;;;;9.50;5.05;;;;;;;;;;5031325;28;20170;-48
2021/04/07 12:30:21;;;;;;;8.00;5.07;;;;;;;;;;5031143;28;20160;-50
2021/04/07 12:32:47;;;;;;;10.63;5.72;;;;;;;;;;5031230;28;20408;-49
2021/04/07 12:35:15;;;;;;;11.27;5.15;;;;;;;;;;5030766;28;20203;-49
2021/04/07 12:37:43;;;;;;;5.47;4.10;;;;;;;;;;5031043;28;20174;-49
2021/04/07 12:40:11;;;;;;;6.50;3.10;;;;;;;;;;5030346;28;20686;-51
2021/04/07 12:42:37;;;;;;;3.45;3.10;;;;;;;;;;5030897;28;20182;-49
2021/04/07 12:45:04;;;;;;;5.50;2.43;;;;;;;;;;5030564;28;20195;-49
2021/04/07 12:47:30;;;;;;;10.10;2.85;;;;;;;;;;5030932;28;20543;-51
2021/04/07 12:49:56;;;;;;;12.10;3.13;;;;;;;;;;5030933;28;20262;-52
2021/04/07 12:52:22;;;;;;;6.17;3.13;;;;;;;;;;5031054;28;20409;-49
2021/04/07 12:54:48;;;;;;;11.33;3.37;;;;;;;;;;5031118;28;20456;-49
2021/04/07 12:57:14;;;;;;;7.03;2.93;;;;;;;;;;5030761;28;20412;-48
2021/04/07 12:59:40;;;;;;;9.07;2.30;;;;;;;;;;5108122;23;20549;-55
2021/04/07 13:02:08;;;;;;;6.97;2.55;;;;;;;;;;5091244;28;20408;-55
2021/04/07 13:04:34;;;;;;;5.43;3.15;;;;;;;;;;5090627;28;20682;-56
2021/04/07 13:07:00;;;;;;;7.30;2.60;;;;;;;;;;5091955;28;20172;-58
2021/04/07 13:09:26;;;;;;;16.40;3.07;;;;;;;;;;5108241;28;20831;-56
2021/04/07 13:11:51;;;;;;;6.93;3.10;;;;;;;;;;5111088;28;20405;-56
2021/04/07 13:14:17;;;;;;;11.47;2.93;;;;;;;;;;5111153;28;20395;-56
2021/04/07 13:16:43;;;;;;;5.70;2.80;;;;;;;;;;5110675;28;20395;-56
2021/04/07 13:19:10;;;;;;;8.80;3.43;;;;;;;;;;5111051;28;20442;-55
2021/04/07 13:21:37;;;;;;;11.10;3.03;;;;;;;;;;5111019;28;20481;-55
2021/04/07 13:24:04;;;;;;;14.40;2.85;;;;;;;;;;5111189;28;20180;-55
2021/04/07 13:26:30;;;;;;;10.82;2.90;;;;;;;;;;5110555;28;20647;-55
2021/04/07 13:28:58;;;;;;;11.43;4.10;;;;;;;;;;5110885;28;20190;-55
2021/04/07 13:31:24;;;;;;;4.70;3.47;;;;;;;;;;5110870;28;20390;-56
2021/04/07 13:33:56;;;;;;;10.23;2.97;;;;;;;;;;5111050;28;20200;-56
2021/04/07 13:36:30;;;;;;;5.57;3.30;;;;;;;;;;5110772;28;20173;-56
2021/04/07 13:39:07;;;;;;;11.25;3.78;;;;;;;;;;5110741;28;20187;-55
2021/04/07 13:44:34;;;;;;;8.27;2.55;;;;;;;;;;5008090;28;20218;-57
2021/04/07 13:47:01;;;;;;;6.40;2.70;;;;;;;;;;5089966;28;20212;-57
2021/04/07 13:49:27;;;;;;;8.80;2.47;;;;;;;;;;5114726;28;20445;-56
2021/04/07 13:51:53;;;;;;;8.73;2.58;;;;;;;;;;5115493;28;20240;-56
2021/04/07 13:54:19;;;;;;;9.23;2.23;;;;;;;;;;5115689;28;20196;-57
2021/04/07 13:57:06;;;;;;;15.13;2.57;;;;;;;;;;5115042;28;20409;-57
2021/04/07 13:59:32;;;;;;;5.07;2.20;;;;;;;;;;5114753;28;20446;-57
2021/04/07 14:01:58;;;;;;;3.70;2.23;;;;;;;;;;5114857;28;20408;-57
2021/04/07 14:04:24;;;;;;;12.60;3.40;;;;;;;;;;5114608;28;20892;-57
2021/04/07 14:06:51;;;;;;;8.33;2.87;;;;;;;;;;5115054;28;20456;-57
2021/04/07 14:09:18;;;;;;;3.28;2.85;;;;;;;;;;5097907;28;20435;-58
2021/04/07 14:11:44;;;;;;;11.17;3.67;;;;;;;;;;5097188;28;20182;-57
2021/04/07 14:14:12;;;;;;;12.33;2.77;;;;;;;;;;5111331;28;20411;-58
2021/04/07 14:16:37;;;;;;;4.43;3.03;;;;;;;;;;5095462;28;20486;-58
2021/04/07 14:19:03;;;;;;;3.67;2.40;;;;;;;;;;5094814;28;20221;-57
2021/04/07 14:21:30;;;;;;;10.73;2.57;;;;;;;;;;5094517;28;20476;-57
2021/04/07 14:23:56;;;;;;;6.20;2.17;;;;;;;;;;5076577;28;20415;-54
2021/04/07 14:26:23;;;;;;;14.40;2.17;;;;;;;;;;5093476;28;20889;-54
2021/04/07 14:28:49;;;;;;;6.60;2.23;;;;;;;;;;5093812;28;20428;-58
2021/04/07 14:31:15;;;;;;;14.20;2.83;;;;;;;;;;5093816;28;20398;-55
2021/04/07 14:33:41;;;;;;;3.10;2.30;;;;;;;;;;5093863;28;20409;-53